createdAt,value
2023-09-13T00:02:11.314Z,96739.53
2023-09-13T00:04:38.165Z,96737.50
2023-09-13T00:07:04.931Z,96744.13
2023-09-13T00:09:31.751Z,96738.91
2023-09-13T00:11:58.384Z,96737.50
2023-09-13T00:14:25.196Z,96739.88
2023-09-13T00:16:53.255Z,96734.06
2023-09-13T00:19:20.101Z,96721.31
2023-09-13T00:21:46.764Z,96735.81
2023-09-13T00:24:13.508Z,96731.22
2023-09-13T00:26:40.170Z,96737.94
2023-09-13T00:29:06.841Z,96744.22
2023-09-13T00:31:34.000Z,96747.66
2023-09-13T00:34:02.146Z,96745.38
2023-09-13T00:36:28.855Z,96748.91
2023-09-13T00:38:55.547Z,96750.06
2023-09-13T00:41:22.229Z,96755.34
2023-09-13T00:43:48.933Z,96750.88
2023-09-13T00:46:15.703Z,96750.84
2023-09-13T00:48:42.847Z,96746.56
2023-09-13T00:51:10.893Z,96739.34
2023-09-13T00:53:37.594Z,96742.41
2023-09-13T00:56:04.612Z,96738.53
2023-09-13T00:58:31.412Z,96732.00
2023-09-13T01:00:58.132Z,96740.88
2023-09-13T01:03:24.996Z,96739.88
2023-09-13T01:05:51.797Z,96740.06
2023-09-13T01:08:19.847Z,96745.41
2023-09-13T01:10:46.871Z,96750.66
2023-09-13T01:13:13.624Z,96745.50
2023-09-13T01:15:44.653Z,96740.13
2023-09-13T01:18:13.946Z,96732.38
2023-09-13T01:20:49.663Z,96730.78
2023-09-13T01:23:34.100Z,96731.56
2023-09-13T01:26:06.799Z,96730.06
2023-09-13T01:28:36.203Z,96727.47
2023-09-13T01:31:04.875Z,96729.88
2023-09-13T01:33:31.564Z,96736.94
2023-09-13T01:35:58.296Z,96744.72
2023-09-13T01:38:24.997Z,96749.03
2023-09-13T01:40:52.045Z,96757.03
2023-09-13T01:43:19.000Z,96758.97
2023-09-13T01:45:47.233Z,96757.25
2023-09-13T01:48:13.977Z,96753.84
2023-09-13T01:50:40.771Z,96763.44
2023-09-13T01:53:07.432Z,96782.88
2023-09-13T01:55:34.761Z,96793.59
2023-09-13T01:58:01.636Z,96799.38
2023-09-13T02:00:28.404Z,96813.19
2023-09-13T02:02:56.400Z,96831.28
2023-09-13T02:05:23.235Z,96835.44
2023-09-13T02:07:49.946Z,96841.41
2023-09-13T02:10:16.819Z,96838.44
2023-09-13T02:12:43.646Z,96833.22
2023-09-13T02:15:10.924Z,96824.09
2023-09-13T02:17:37.693Z,96825.19
2023-09-13T02:20:07.474Z,96824.59
2023-09-13T02:22:35.157Z,96809.78
2023-09-13T02:25:01.932Z,96812.09
2023-09-13T02:27:29.539Z,96803.19
2023-09-13T02:29:56.228Z,96811.50
2023-09-13T02:32:22.942Z,96813.31
2023-09-13T02:34:49.583Z,96812.75
2023-09-13T02:37:17.666Z,96805.91
2023-09-13T02:39:44.534Z,96815.63
2023-09-13T02:42:11.296Z,96816.19
2023-09-13T02:44:38.660Z,96815.91
2023-09-13T02:47:05.542Z,96809.31
2023-09-13T02:49:33.055Z,96811.91
2023-09-13T02:51:59.847Z,96809.16
2023-09-13T02:54:27.953Z,96810.16
2023-09-13T02:56:54.659Z,96806.31
2023-09-13T02:59:21.456Z,96798.09
2023-09-13T03:01:49.028Z,96797.09
2023-09-13T03:04:16.168Z,96794.03
2023-09-13T03:06:43.064Z,96788.66
2023-09-13T03:09:09.856Z,96794.25
2023-09-13T03:11:38.845Z,96797.50
2023-09-13T03:14:05.645Z,96794.91
2023-09-13T03:16:32.825Z,96789.78
2023-09-13T03:18:59.783Z,96786.72
2023-09-13T03:21:32.854Z,96777.72
2023-09-13T03:23:59.651Z,96783.25
2023-09-13T03:26:26.538Z,96783.06
2023-09-13T03:28:56.288Z,96789.19
2023-09-13T03:31:24.506Z,96786.66
2023-09-13T03:33:53.094Z,96772.50
2023-09-13T03:36:20.074Z,96774.13
2023-09-13T03:38:50.151Z,96767.03
2023-09-13T03:41:21.386Z,96771.25
2023-09-13T03:43:48.346Z,96773.50
2023-09-13T03:46:16.411Z,96780.91
2023-09-13T03:48:45.097Z,96781.91
2023-09-13T03:51:12.952Z,96781.09
2023-09-13T03:53:39.669Z,96780.44
2023-09-13T03:56:07.293Z,96781.09
2023-09-13T03:58:35.694Z,96777.78
2023-09-13T04:01:02.605Z,96767.78
2023-09-13T04:03:30.724Z,96771.03
2023-09-13T04:05:57.526Z,96771.97
2023-09-13T04:08:24.242Z,96763.22
2023-09-13T04:10:50.929Z,96760.84
2023-09-13T04:13:19.194Z,96757.75
2023-09-13T04:15:46.073Z,96760.84
2023-09-13T04:18:13.414Z,96757.31
2023-09-13T04:20:42.981Z,96751.19
2023-09-13T04:23:09.703Z,96752.41
2023-09-13T04:25:37.653Z,96754.72
2023-09-13T04:28:06.922Z,96759.25
2023-09-13T04:30:34.219Z,96759.44
2023-09-13T04:33:02.157Z,96753.19
2023-09-13T04:35:28.938Z,96754.13
2023-09-13T04:37:56.964Z,96756.31
2023-09-13T04:40:23.713Z,96755.06
2023-09-13T04:42:55.950Z,96755.38
2023-09-13T04:45:23.325Z,96759.97
2023-09-13T04:47:50.140Z,96759.25
2023-09-13T04:50:16.873Z,96763.25
2023-09-13T04:52:43.809Z,96767.44
2023-09-13T04:55:12.255Z,96766.78
2023-09-13T04:57:39.059Z,96767.63
2023-09-13T05:00:06.898Z,96760.50
2023-09-13T05:02:33.678Z,96757.97
2023-09-13T05:05:00.549Z,96761.84
2023-09-13T05:07:27.300Z,96768.63
2023-09-13T05:09:54.243Z,96773.34
2023-09-13T05:12:22.756Z,96777.47
2023-09-13T05:14:49.431Z,96774.25
2023-09-13T05:17:16.160Z,96778.25
2023-09-13T05:19:42.918Z,96780.13
2023-09-13T05:22:09.611Z,96786.56
2023-09-13T05:24:36.362Z,96791.38
2023-09-13T05:27:03.088Z,96793.97
2023-09-13T05:29:31.089Z,96795.22
2023-09-13T05:31:59.167Z,96802.34
2023-09-13T05:34:26.148Z,96809.19
2023-09-13T05:36:52.899Z,96807.56
2023-09-13T05:39:19.573Z,96816.34
2023-09-13T05:41:46.238Z,96811.97
2023-09-13T05:44:18.956Z,96820.03
2023-09-13T05:46:47.167Z,96806.94
2023-09-13T05:49:13.979Z,96812.34
2023-09-13T05:51:41.723Z,96810.75
2023-09-13T05:54:08.379Z,96820.53
2023-09-13T05:56:35.069Z,96827.94
2023-09-13T05:59:01.735Z,96829.44
2023-09-13T06:01:28.493Z,96825.44
2023-09-13T06:03:56.655Z,96821.91
2023-09-13T06:06:23.619Z,96824.78
2023-09-13T06:08:50.302Z,96828.44
2023-09-13T06:11:16.971Z,96833.56
2023-09-13T06:13:43.956Z,96830.56
2023-09-13T06:16:10.956Z,96833.09
2023-09-13T06:18:38.013Z,96834.03
2023-09-13T06:21:06.409Z,96835.66
2023-09-13T06:23:34.153Z,96840.44
2023-09-13T06:26:00.950Z,96839.47
2023-09-13T06:28:27.784Z,96845.09
2023-09-13T06:31:02.572Z,96843.47
2023-09-13T06:33:40.301Z,96840.88
2023-09-13T06:36:10.576Z,96845.25
2023-09-13T06:38:37.851Z,96844.78
2023-09-13T06:41:04.766Z,96850.78
2023-09-13T06:43:33.526Z,96844.88
2023-09-13T06:46:06.269Z,96848.75
2023-09-13T06:48:34.397Z,96850.72
2023-09-13T06:51:47.401Z,96847.16
2023-09-13T06:53:51.810Z,96845.25
2023-09-13T06:56:21.097Z,96846.75
2023-09-13T06:58:51.704Z,96855.03
2023-09-13T07:01:35.301Z,96850.03
2023-09-13T07:04:09.405Z,96864.75
2023-09-13T07:06:39.166Z,96864.50
2023-09-13T07:09:07.285Z,96858.88
2023-09-13T07:11:34.046Z,96866.16
2023-09-13T07:14:00.739Z,96874.34
2023-09-13T07:16:27.660Z,96873.66
2023-09-13T07:18:54.403Z,96863.81
2023-09-13T07:21:21.053Z,96865.09
2023-09-13T07:23:47.688Z,96868.00
2023-09-13T07:26:15.692Z,96868.16
2023-09-13T07:28:42.786Z,96871.84
2023-09-13T07:31:10.016Z,96870.09
2023-09-13T07:33:36.797Z,96883.06
2023-09-13T07:36:03.566Z,96891.31
2023-09-13T07:38:30.224Z,96886.63
2023-09-13T07:40:57.073Z,96893.19
2023-09-13T07:43:25.235Z,96902.97
2023-09-13T07:45:52.012Z,96898.34
2023-09-13T07:48:18.801Z,96897.34
2023-09-13T07:50:45.629Z,96902.03
2023-09-13T07:53:12.794Z,96910.53
2023-09-13T07:55:39.582Z,96912.78
2023-09-13T07:58:06.621Z,96909.53
2023-09-13T08:00:34.803Z,96911.47
2023-09-13T08:03:01.776Z,96915.31
2023-09-13T08:05:28.544Z,96911.94
2023-09-13T08:07:55.331Z,96914.34
2023-09-13T08:10:22.044Z,96924.78
2023-09-13T08:12:48.829Z,96929.13
2023-09-13T08:15:15.555Z,96930.41
2023-09-13T08:17:43.666Z,96927.66
2023-09-13T08:20:11.138Z,96920.13
2023-09-13T08:22:40.411Z,96930.88
2023-09-13T08:25:09.955Z,96927.63
2023-09-13T08:27:36.656Z,96925.34
2023-09-13T08:30:03.712Z,96927.44
2023-09-13T08:32:30.415Z,96932.69
2023-09-13T08:34:58.444Z,96937.75
2023-09-13T08:37:25.274Z,96947.72
2023-09-13T08:39:51.954Z,96945.63
2023-09-13T08:42:18.746Z,96945.44
2023-09-13T08:44:45.419Z,96949.81
2023-09-13T08:47:12.107Z,96952.16
2023-09-13T08:49:38.811Z,96953.91
2023-09-13T08:52:07.015Z,96950.25
2023-09-13T08:54:47.606Z,96950.09
2023-09-13T08:57:18.713Z,96962.19
2023-09-13T08:59:45.409Z,96953.66
2023-09-13T09:02:15.726Z,96955.72
2023-09-13T09:04:42.572Z,96961.56
2023-09-13T09:07:10.565Z,96968.50
2023-09-13T09:09:37.256Z,96963.31
2023-09-13T09:12:04.552Z,96965.53
2023-09-13T09:14:32.324Z,96966.69
2023-09-13T09:16:59.617Z,96959.13
2023-09-13T09:19:26.335Z,96965.53
2023-09-13T09:21:53.016Z,96969.09
2023-09-13T09:24:21.040Z,96970.38
2023-09-13T09:26:47.699Z,96975.34
2023-09-13T09:29:15.391Z,96981.63
2023-09-13T09:31:42.216Z,96983.88
2023-09-13T09:34:09.713Z,96984.34
2023-09-13T09:36:43.197Z,96983.72
2023-09-13T09:39:09.874Z,96990.31
2023-09-13T09:41:38.684Z,96994.81
2023-09-13T09:44:05.829Z,96991.91
2023-09-13T09:46:32.978Z,96994.94
2023-09-13T09:48:59.980Z,96991.09
2023-09-13T09:51:26.688Z,96988.69
2023-09-13T09:53:53.349Z,96990.94
2023-09-13T09:56:20.075Z,96988.22
2023-09-13T09:58:48.281Z,96982.44
2023-09-13T10:01:15.197Z,96981.16
2023-09-13T10:03:41.983Z,96985.00
2023-09-13T10:06:10.435Z,96985.00
2023-09-13T10:08:41.983Z,96992.88
2023-09-13T10:11:11.218Z,97000.41
2023-09-13T10:13:38.649Z,97001.84
2023-09-13T10:16:07.733Z,96998.47
2023-09-13T10:18:37.798Z,97000.56
2023-09-13T10:21:04.941Z,96998.63
2023-09-13T10:23:38.348Z,96996.84
2023-09-13T10:26:05.073Z,96991.72
2023-09-13T10:28:31.909Z,96996.88
2023-09-13T10:30:58.684Z,96998.13
2023-09-13T10:33:26.741Z,97003.75
2023-09-13T10:35:53.433Z,97003.91
2023-09-13T10:38:23.005Z,97008.91
2023-09-13T10:40:51.757Z,97016.28
2023-09-13T10:43:18.577Z,97013.41
2023-09-13T10:45:45.355Z,97008.91
2023-09-13T10:48:12.022Z,97014.19
2023-09-13T10:50:40.052Z,97012.91
2023-09-13T10:53:06.793Z,97018.53
2023-09-13T10:55:33.604Z,97015.78
2023-09-13T10:58:00.321Z,97015.97
2023-09-13T11:00:27.276Z,97014.19
2023-09-13T11:02:54.055Z,97013.06
2023-09-13T11:05:20.857Z,97022.88
2023-09-13T11:07:49.088Z,97022.53
2023-09-13T11:10:16.376Z,97023.50
2023-09-13T11:12:43.129Z,97029.75
2023-09-13T11:15:13.437Z,97025.25
2023-09-13T11:17:40.887Z,97043.09
2023-09-13T11:20:24.247Z,97044.19
2023-09-13T11:23:02.245Z,97047.22
2023-09-13T11:25:31.798Z,97052.66
2023-09-13T11:27:58.466Z,97057.59
2023-09-13T11:30:47.449Z,97058.44
2023-09-13T11:33:14.258Z,97050.06
2023-09-13T11:35:40.924Z,97056.84
2023-09-13T11:38:09.040Z,97060.06
2023-09-13T11:40:35.788Z,97064.72
2023-09-13T11:43:05.284Z,97070.34
2023-09-13T11:45:34.797Z,97068.41
2023-09-13T11:48:02.920Z,97077.63
2023-09-13T11:50:47.357Z,97083.22
2023-09-13T11:53:16.811Z,97078.34
2023-09-13T11:55:58.372Z,97085.72
2023-09-13T11:58:36.427Z,97081.25
2023-09-13T12:01:10.730Z,97086.97
2023-09-13T12:04:13.097Z,97090.81
2023-09-13T12:06:32.621Z,97089.88
2023-09-13T12:09:14.440Z,97092.69
2023-09-13T12:11:44.912Z,97089.13
2023-09-13T12:14:22.412Z,97097.66
2023-09-13T12:16:57.153Z,97107.94
2023-09-13T12:19:24.648Z,97100.56
2023-09-13T12:21:51.382Z,97099.53
2023-09-13T12:24:25.336Z,97104.97
2023-09-13T12:26:52.112Z,97101.25
2023-09-13T12:29:18.754Z,97103.19
2023-09-13T12:31:45.514Z,97106.53
2023-09-13T12:34:12.230Z,97112.97
2023-09-13T12:36:40.182Z,97110.84
2023-09-13T12:39:15.874Z,97102.31
2023-09-13T12:41:47.053Z,97097.47
2023-09-13T12:44:13.718Z,97101.72
2023-09-13T12:46:40.442Z,97110.78
2023-09-13T12:49:07.218Z,97113.22
2023-09-13T12:51:33.930Z,97108.63
2023-09-13T12:54:00.997Z,97104.03
2023-09-13T12:56:27.715Z,97116.00
2023-09-13T12:58:56.305Z,97110.88
2023-09-13T13:01:23.348Z,97108.22
2023-09-13T13:03:57.475Z,97115.97
2023-09-13T13:06:24.287Z,97115.38
2023-09-13T13:08:50.972Z,97113.97
2023-09-13T13:11:17.621Z,97116.47
2023-09-13T13:13:44.502Z,97112.22
2023-09-13T13:16:16.298Z,97115.25
2023-09-13T13:18:54.185Z,97113.63
2023-09-13T13:21:37.513Z,97115.97
2023-09-13T13:24:06.516Z,97117.28
2023-09-13T13:26:33.353Z,97120.44
2023-09-13T13:29:00.021Z,97119.47
2023-09-13T13:31:28.073Z,97116.53
2023-09-13T13:33:54.777Z,97112.66
2023-09-13T13:36:21.673Z,97117.06
2023-09-13T13:38:48.318Z,97121.47
2023-09-13T13:41:14.997Z,97118.88
2023-09-13T13:43:41.784Z,97115.59
2023-09-13T13:46:09.457Z,97112.88
2023-09-13T13:48:37.552Z,97111.53
2023-09-13T13:51:04.563Z,97108.31
2023-09-13T13:53:31.340Z,97114.16
2023-09-13T13:55:58.022Z,97104.72
2023-09-13T13:58:24.667Z,97112.34
2023-09-13T14:00:51.526Z,97110.28
2023-09-13T14:03:18.354Z,97116.91
2023-09-13T14:05:48.232Z,97109.44
2023-09-13T14:08:17.651Z,97113.13
2023-09-13T14:10:44.330Z,97117.53
2023-09-13T14:13:14.064Z,97114.06
2023-09-13T14:15:41.122Z,97113.13
2023-09-13T14:18:07.946Z,97116.34
2023-09-13T14:20:34.686Z,97113.75
2023-09-13T14:23:02.743Z,97109.19
2023-09-13T14:25:29.445Z,97109.69
2023-09-13T14:28:09.367Z,97106.03
2023-09-13T14:30:37.197Z,97105.22
2023-09-13T14:33:04.386Z,97103.63
2023-09-13T14:35:31.092Z,97101.16
2023-09-13T14:37:57.839Z,97101.41
2023-09-13T14:40:26.399Z,97101.75
2023-09-13T14:42:53.156Z,97107.56
2023-09-13T14:45:19.908Z,97099.53
2023-09-13T14:47:46.943Z,97099.09
2023-09-13T14:50:13.977Z,97100.69
2023-09-13T14:52:40.638Z,97091.53
2023-09-13T14:55:08.267Z,97095.66
2023-09-13T14:57:37.399Z,97100.81
2023-09-13T15:00:05.805Z,97100.31
2023-09-13T15:02:32.580Z,97101.09
2023-09-13T15:04:59.323Z,97100.16
2023-09-13T15:07:25.971Z,97094.47
2023-09-13T15:09:52.724Z,97100.81
2023-09-13T15:12:19.520Z,97104.81
2023-09-13T15:14:47.602Z,97100.72
2023-09-13T15:17:14.265Z,97096.03
2023-09-13T15:19:41.059Z,97105.63
2023-09-13T15:22:07.782Z,97104.28
2023-09-13T15:24:34.658Z,97099.16
2023-09-13T15:27:01.405Z,97095.44
2023-09-13T15:29:28.222Z,97108.97
2023-09-13T15:34:25.885Z,97107.63
2023-09-13T15:36:52.569Z,97104.53
2023-09-13T15:39:19.387Z,97107.84
2023-09-13T15:41:46.090Z,97108.44
2023-09-13T15:44:12.832Z,97111.88
2023-09-13T15:46:39.586Z,97105.72
2023-09-13T15:49:07.606Z,97104.78
2023-09-13T15:51:34.264Z,97107.09
2023-09-13T15:54:00.937Z,97108.69
2023-09-13T15:56:27.599Z,97113.63
2023-09-13T15:58:54.291Z,97118.38
2023-09-13T16:01:20.997Z,97109.69
2023-09-13T16:03:47.796Z,97120.44
2023-09-13T16:06:16.149Z,97117.28
2023-09-13T16:08:43.022Z,97113.66
2023-09-13T16:11:10.016Z,97117.84
2023-09-13T16:13:36.777Z,97122.34
2023-09-13T16:16:03.659Z,97113.44
2023-09-13T16:18:30.458Z,97119.06
2023-09-13T16:20:57.409Z,97120.50
2023-09-13T16:23:25.400Z,97130.34
2023-09-13T16:25:52.053Z,97125.50
2023-09-13T16:28:18.747Z,97129.03
2023-09-13T16:30:45.454Z,97126.31
2023-09-13T16:33:12.268Z,97124.88
2023-09-13T16:35:38.951Z,97125.38
2023-09-13T16:38:06.528Z,97133.84
2023-09-13T16:40:34.583Z,97131.25
2023-09-13T16:43:01.296Z,97127.38
2023-09-13T16:45:28.109Z,97132.31
2023-09-13T16:47:54.861Z,97128.97
2023-09-13T16:50:21.613Z,97126.38
2023-09-13T16:52:48.297Z,97130.22
2023-09-13T16:55:14.984Z,97128.00
2023-09-13T16:57:43.046Z,97133.56
2023-09-13T17:00:10.044Z,97135.41
2023-09-13T17:02:36.804Z,97136.28
2023-09-13T17:05:03.846Z,97146.66
2023-09-13T17:07:30.546Z,97141.97
2023-09-13T17:09:57.272Z,97144.63
2023-09-13T17:12:24.057Z,97135.72
2023-09-13T17:14:52.122Z,97138.56
2023-09-13T17:17:19.148Z,97146.72
2023-09-13T17:19:45.814Z,97148.50
2023-09-13T17:22:12.568Z,97149.75
2023-09-13T17:24:39.280Z,97153.78
2023-09-13T17:27:10.196Z,97159.78
2023-09-13T17:29:37.300Z,97149.31
2023-09-13T17:32:08.492Z,97155.38
2023-09-13T17:34:35.686Z,97151.53
2023-09-13T17:37:02.698Z,97155.69
2023-09-13T17:39:29.500Z,97154.06
2023-09-13T17:41:56.217Z,97154.56
2023-09-13T17:44:22.999Z,97158.78
2023-09-13T17:46:49.707Z,97155.56
2023-09-13T17:49:17.777Z,97159.59
2023-09-13T17:51:44.550Z,97159.91
2023-09-13T17:54:13.480Z,97158.59
2023-09-13T17:56:40.572Z,97157.97
2023-09-13T17:59:07.461Z,97163.72
2023-09-13T18:01:34.232Z,97166.50
2023-09-13T18:04:01.150Z,97170.28
2023-09-13T18:06:29.315Z,97173.31
2023-09-13T18:08:56.050Z,97172.50
2023-09-13T18:11:22.736Z,97178.81
2023-09-13T18:13:49.417Z,97178.63
2023-09-13T18:16:16.102Z,97178.75
2023-09-13T18:18:42.960Z,97177.72
2023-09-13T18:21:09.861Z,97177.94
2023-09-13T18:23:37.868Z,97189.44
2023-09-13T18:26:04.550Z,97187.34
2023-09-13T18:28:31.305Z,97185.13
2023-09-13T18:31:04.379Z,97189.44
2023-09-13T18:33:31.170Z,97186.72
2023-09-13T18:35:58.054Z,97194.28
2023-09-13T18:38:24.809Z,97195.50
2023-09-13T18:40:52.836Z,97197.41
2023-09-13T18:43:19.537Z,97202.53
2023-09-13T18:45:46.246Z,97196.50
2023-09-13T18:48:12.956Z,97198.28
2023-09-13T18:50:39.700Z,97199.28
2023-09-13T18:53:06.413Z,97200.31
2023-09-13T18:55:33.081Z,97197.41
2023-09-13T18:58:01.119Z,97195.06
2023-09-13T19:00:27.844Z,97202.94
2023-09-13T19:02:56.878Z,97202.13
2023-09-13T19:05:23.760Z,97200.72
2023-09-13T19:07:50.462Z,97201.94
2023-09-13T19:10:17.997Z,97210.22
2023-09-13T19:12:44.713Z,97211.69
2023-09-13T19:15:13.089Z,97206.25
2023-09-13T19:17:39.821Z,97200.31
2023-09-13T19:20:08.182Z,97208.59
2023-09-13T19:22:34.917Z,97214.22
2023-09-13T19:25:01.809Z,97212.75
2023-09-13T19:27:28.565Z,97216.09
2023-09-13T19:29:55.275Z,97218.38
2023-09-13T19:32:23.377Z,97220.00
2023-09-13T19:34:50.085Z,97224.75
2023-09-13T19:37:16.728Z,97221.56
2023-09-13T19:39:43.936Z,97227.59
2023-09-13T19:42:10.675Z,97217.00
2023-09-13T19:44:37.368Z,97223.78
2023-09-13T19:47:04.454Z,97228.28
2023-09-13T19:49:32.526Z,97225.34
2023-09-13T19:51:59.318Z,97237.88
2023-09-13T19:54:26.009Z,97239.47
2023-09-13T19:56:52.708Z,97241.59
2023-09-13T19:59:19.424Z,97245.72
2023-09-13T20:01:46.227Z,97245.50
2023-09-13T20:04:13.006Z,97250.81
2023-09-13T20:06:41.098Z,97245.69
2023-09-13T20:09:07.809Z,97240.66
2023-09-13T20:11:41.167Z,97245.19
2023-09-13T20:14:07.851Z,97238.44
2023-09-13T20:16:34.552Z,97243.88
2023-09-13T20:19:01.317Z,97247.81
2023-09-13T20:21:28.083Z,97243.97
2023-09-13T20:23:56.149Z,97249.63
2023-09-13T20:26:23.314Z,97247.91
2023-09-13T20:28:50.076Z,97246.09
2023-09-13T20:31:16.827Z,97252.16
2023-09-13T20:33:43.552Z,97241.38
2023-09-13T20:36:10.332Z,97247.41
2023-09-13T20:38:36.973Z,97251.34
2023-09-13T20:41:04.985Z,97251.63
2023-09-13T20:43:31.644Z,97256.34
2023-09-13T20:45:58.457Z,97258.00
2023-09-13T20:48:25.168Z,97257.25
2023-09-13T20:50:51.888Z,97254.84
2023-09-13T20:53:18.541Z,97253.44
2023-09-13T20:55:45.239Z,97256.16
2023-09-13T20:58:13.245Z,97258.47
2023-09-13T21:00:40.238Z,97245.78
2023-09-13T21:03:07.099Z,97257.16
2023-09-13T21:05:33.881Z,97261.69
2023-09-13T21:08:00.556Z,97259.47
2023-09-13T21:10:27.435Z,97263.22
2023-09-13T21:12:54.294Z,97259.56
2023-09-13T21:15:22.378Z,97266.63
2023-09-13T21:17:49.219Z,97256.66
2023-09-13T21:20:16.117Z,97260.59
2023-09-13T21:22:43.715Z,97261.00
2023-09-13T21:25:10.613Z,97269.44
2023-09-13T21:27:37.283Z,97263.44
2023-09-13T21:32:33.902Z,97264.75
2023-09-13T21:35:02.892Z,97259.09
2023-09-13T21:37:33.506Z,97259.47
2023-09-13T21:40:01.256Z,97251.31
2023-09-13T21:42:28.000Z,97253.22
2023-09-13T21:44:55.210Z,97258.47
2023-09-13T21:47:21.972Z,97249.22
2023-09-13T21:49:49.996Z,97249.81
2023-09-13T21:52:16.667Z,97253.44
2023-09-13T21:54:47.010Z,97257.00
2023-09-13T21:57:13.722Z,97248.34
2023-09-13T21:59:40.415Z,97246.63
2023-09-13T22:02:07.284Z,97246.00
2023-09-13T22:04:34.106Z,97245.41
2023-09-13T22:07:02.299Z,97249.94
2023-09-13T22:09:29.115Z,97255.06
2023-09-13T22:11:55.864Z,97249.50
2023-09-13T22:14:22.592Z,97255.16
2023-09-13T22:16:49.462Z,97249.09
2023-09-13T22:19:16.225Z,97247.59
2023-09-13T22:21:43.021Z,97246.63
2023-09-13T22:24:11.116Z,97247.13
2023-09-13T22:26:37.870Z,97249.50
2023-09-13T22:29:04.629Z,97251.13
2023-09-13T22:31:31.401Z,97254.66
2023-09-13T22:33:58.210Z,97255.16
2023-09-13T22:36:25.014Z,97251.31
2023-09-13T22:39:02.706Z,97247.50
2023-09-13T22:41:37.315Z,97247.13
2023-09-13T22:44:04.222Z,97254.94
2023-09-13T22:46:31.060Z,97250.34
2023-09-13T22:48:57.924Z,97254.78
2023-09-13T22:51:24.685Z,97252.16
2023-09-13T22:53:51.427Z,97257.59
2023-09-13T22:56:18.298Z,97254.75
2023-09-13T22:58:46.628Z,97256.56
2023-09-13T23:01:13.593Z,97264.44
2023-09-13T23:03:45.149Z,97259.59
2023-09-13T23:06:12.425Z,97259.00
2023-09-13T23:08:39.372Z,97259.78
2023-09-13T23:11:06.063Z,97269.56
2023-09-13T23:13:32.729Z,97262.63
2023-09-13T23:16:01.816Z,97261.31
2023-09-13T23:18:28.530Z,97253.97
2023-09-13T23:20:55.248Z,97256.69
2023-09-13T23:23:21.991Z,97255.06
2023-09-13T23:25:57.843Z,97252.72
2023-09-13T23:28:24.631Z,97249.72
2023-09-13T23:30:51.466Z,97244.88
2023-09-13T23:33:19.501Z,97249.41
2023-09-13T23:35:46.188Z,97247.09
2023-09-13T23:38:12.877Z,97243.69
2023-09-13T23:40:39.529Z,97252.56
2023-09-13T23:43:06.231Z,97243.50
2023-09-13T23:45:33.077Z,97240.19
2023-09-13T23:47:59.843Z,97245.69
2023-09-13T23:50:27.850Z,97246.53
2023-09-13T23:52:54.529Z,97250.53
2023-09-13T23:55:21.168Z,97242.50
2023-09-13T23:57:47.866Z,97250.94
